sensor_id;sensor_type;location;lat;lon;timestamp;pressure;altitude;pressure_sealevel;temperature;humidity
46241;BME280;31961;52.416;-0.732;2023-01-16T00:00:11;98074.80;;;3.87;100.00
46241;BME280;31961;52.416;-0.732;2023-01-16T00:02:39;98071.91;;;4.16;100.00
46241;BME280;31961;52.416;-0.732;2023-01-16T00:05:07;98067.94;;;4.03;100.00
46241;BME280;31961;52.416;-0.732;2023-01-16T00:07:35;98066.82;;;3.65;100.00
46241;BME280;31961;52.416;-0.732;2023-01-16T00:10:03;98058.53;;;4.00;100.00
46241;BME280;31961;52.416;-0.732;2023-01-16T00:12:30;98057.67;;;4.02;100.00
46241;BME280;31961;52.416;-0.732;2023-01-16T00:14:57;98054.58;;;4.22;100.00
46241;BME280;31961;52.416;-0.732;2023-01-16T00:17:25;98050.10;;;3.14;100.00
46241;BME280;31961;52.416;-0.732;2023-01-16T00:19:52;98042.05;;;3.93;100.00
46241;BME280;31961;52.416;-0.732;2023-01-16T00:22:20;98045.48;;;3.53;100.00
46241;BME280;31961;52.416;-0.732;2023-01-16T00:24:48;98045.18;;;3.21;100.00
46241;BME280;31961;52.416;-0.732;2023-01-16T00:27:15;98038.58;;;4.05;100.00
46241;BME280;31961;52.416;-0.732;2023-01-16T00:29:43;98036.57;;;3.95;100.00
46241;BME280;31961;52.416;-0.732;2023-01-16T00:32:10;98036.02;;;3.76;100.00
46241;BME280;31961;52.416;-0.732;2023-01-16T00:34:36;98028.24;;;4.18;100.00
46241;BME280;31961;52.416;-0.732;2023-01-16T00:37:04;98021.45;;;3.27;100.00
46241;BME280;31961;52.416;-0.732;2023-01-16T00:39:32;98016.13;;;3.14;100.00
46241;BME280;31961;52.416;-0.732;2023-01-16T00:41:59;98013.12;;;3.07;100.00
46241;BME280;31961;52.416;-0.732;2023-01-16T00:44:27;98007.18;;;2.21;100.00
46241;BME280;31961;52.416;-0.732;2023-01-16T00:46:54;98002.57;;;2.66;100.00
46241;BME280;31961;52.416;-0.732;2023-01-16T00:49:21;97993.40;;;2.38;100.00
46241;BME280;31961;52.416;-0.732;2023-01-16T00:51:48;97992.30;;;1.46;100.00
46241;BME280;31961;52.416;-0.732;2023-01-16T00:54:15;97986.16;;;1.14;100.00
46241;BME280;31961;52.416;-0.732;2023-01-16T00:56:43;97976.32;;;1.97;100.00
46241;BME280;31961;52.416;-0.732;2023-01-16T00:59:11;97977.80;;;2.67;100.00
46241;BME280;31961;52.416;-0.732;2023-01-16T01:01:38;97975.35;;;2.44;100.00
46241;BME280;31961;52.416;-0.732;2023-01-16T01:04:06;97976.40;;;3.04;100.00
46241;BME280;31961;52.416;-0.732;2023-01-16T01:06:33;97970.27;;;3.16;100.00
46241;BME280;31961;52.416;-0.732;2023-01-16T01:09:01;97966.64;;;2.57;100.00
46241;BME280;31961;52.416;-0.732;2023-01-16T01:11:29;97961.71;;;2.37;100.00
46241;BME280;31961;52.416;-0.732;2023-01-16T01:13:56;97956.11;;;1.28;100.00
46241;BME280;31961;52.416;-0.732;2023-01-16T01:16:24;97946.83;;;1.75;100.00
46241;BME280;31961;52.416;-0.732;2023-01-16T01:18:51;97943.86;;;2.54;100.00
46241;BME280;31961;52.416;-0.732;2023-01-16T01:21:19;97935.99;;;2.57;100.00
46241;BME280;31961;52.416;-0.732;2023-01-16T01:23:46;97927.50;;;2.16;100.00
46241;BME280;31961;52.416;-0.732;2023-01-16T01:26:16;97924.71;;;2.55;100.00
46241;BME280;31961;52.416;-0.732;2023-01-16T01:28:44;97922.60;;;2.66;100.00
46241;BME280;31961;52.416;-0.732;2023-01-16T01:31:12;97914.53;;;2.33;100.00
46241;BME280;31961;52.416;-0.732;2023-01-16T01:33:40;97911.87;;;1.83;100.00
46241;BME280;31961;52.416;-0.732;2023-01-16T01:36:09;97908.93;;;2.16;100.00
46241;BME280;31961;52.416;-0.732;2023-01-16T01:38:36;97904.31;;;2.59;100.00
46241;BME280;31961;52.416;-0.732;2023-01-16T01:41:04;97899.76;;;2.54;100.00
46241;BME280;31961;52.416;-0.732;2023-01-16T01:43:42;97896.14;;;2.58;100.00
46241;BME280;31961;52.416;-0.732;2023-01-16T01:46:17;97886.91;;;2.77;100.00
46241;BME280;31961;52.416;-0.732;2023-01-16T01:48:48;97877.92;;;2.15;100.00
46241;BME280;31961;52.416;-0.732;2023-01-16T01:51:20;97867.46;;;2.81;100.00
46241;BME280;31961;52.416;-0.732;2023-01-16T01:53:53;97863.30;;;2.77;100.00
46241;BME280;31961;52.416;-0.732;2023-01-16T01:56:26;97859.71;;;2.55;100.00
46241;BME280;31961;52.416;-0.732;2023-01-16T01:58:57;97854.88;;;1.36;100.00
46241;BME280;31961;52.416;-0.732;2023-01-16T02:01:27;97852.28;;;0.86;100.00
46241;BME280;31961;52.416;-0.732;2023-01-16T02:03:58;97843.06;;;1.35;100.00
46241;BME280;31961;52.416;-0.732;2023-01-16T02:06:32;97834.80;;;1.78;100.00
46241;BME280;31961;52.416;-0.732;2023-01-16T02:09:02;97827.33;;;1.83;100.00
46241;BME280;31961;52.416;-0.732;2023-01-16T02:11:34;97823.48;;;1.40;100.00
46241;BME280;31961;52.416;-0.732;2023-01-16T02:14:06;97820.84;;;1.40;100.00
46241;BME280;31961;52.416;-0.732;2023-01-16T02:16:34;97822.00;;;0.28;100.00
46241;BME280;31961;52.416;-0.732;2023-01-16T02:19:02;97812.52;;;0.67;100.00
46241;BME280;31961;52.416;-0.732;2023-01-16T02:22:01;97805.99;;;1.61;100.00
46241;BME280;31961;52.416;-0.732;2023-01-16T02:24:48;97805.46;;;2.22;100.00
46241;BME280;31961;52.416;-0.732;2023-01-16T02:27:38;97802.24;;;1.75;100.00
46241;BME280;31961;52.416;-0.732;2023-01-16T02:30:24;97800.90;;;0.75;100.00
46241;BME280;31961;52.416;-0.732;2023-01-16T02:33:03;97797.42;;;1.18;100.00
46241;BME280;31961;52.416;-0.732;2023-01-16T02:35:44;97786.82;;;1.67;100.00
46241;BME280;31961;52.416;-0.732;2023-01-16T02:38:21;97777.04;;;1.33;100.00
46241;BME280;31961;52.416;-0.732;2023-01-16T02:40:57;97773.74;;;1.56;100.00
46241;BME280;31961;52.416;-0.732;2023-01-16T02:43:31;97768.68;;;1.29;100.00
46241;BME280;31961;52.416;-0.732;2023-01-16T02:46:08;97767.11;;;1.02;100.00
46241;BME280;31961;52.416;-0.732;2023-01-16T02:48:40;97762.91;;;1.35;100.00
46241;BME280;31961;52.416;-0.732;2023-01-16T02:51:15;97758.50;;;1.39;100.00
46241;BME280;31961;52.416;-0.732;2023-01-16T02:53:55;97762.17;;;-0.43;100.00
46241;BME280;31961;52.416;-0.732;2023-01-16T02:56:29;97754.45;;;0.83;100.00
46241;BME280;31961;52.416;-0.732;2023-01-16T02:58:58;97742.22;;;1.05;100.00
46241;BME280;31961;52.416;-0.732;2023-01-16T03:01:26;97732.59;;;1.73;100.00
46241;BME280;31961;52.416;-0.732;2023-01-16T03:04:04;97728.22;;;3.16;100.00
46241;BME280;31961;52.416;-0.732;2023-01-16T03:06:40;97729.98;;;1.72;100.00
46241;BME280;31961;52.416;-0.732;2023-01-16T03:09:22;97731.24;;;0.70;100.00
46241;BME280;31961;52.416;-0.732;2023-01-16T03:12:04;97721.84;;;2.20;100.00
46241;BME280;31961;52.416;-0.732;2023-01-16T03:14:37;97716.15;;;1.96;100.00
46241;BME280;31961;52.416;-0.732;2023-01-16T03:17:17;97710.50;;;1.34;100.00
46241;BME280;31961;52.416;-0.732;2023-01-16T03:19:55;97707.92;;;1.25;100.00
46241;BME280;31961;52.416;-0.732;2023-01-16T03:22:33;97705.52;;;1.62;100.00
46241;BME280;31961;52.416;-0.732;2023-01-16T03:25:18;97702.71;;;1.29;100.00
46241;BME280;31961;52.416;-0.732;2023-01-16T03:27:53;97696.69;;;0.98;100.00
46241;BME280;31961;52.416;-0.732;2023-01-16T03:30:26;97690.28;;;0.91;100.00
46241;BME280;31961;52.416;-0.732;2023-01-16T03:33:01;97690.15;;;1.36;100.00
46241;BME280;31961;52.416;-0.732;2023-01-16T03:35:33;97679.93;;;1.63;100.00
46241;BME280;31961;52.416;-0.732;2023-01-16T03:38:06;97671.79;;;1.22;100.00
46241;BME280;31961;52.416;-0.732;2023-01-16T03:40:39;97664.82;;;1.62;100.00
46241;BME280;31961;52.416;-0.732;2023-01-16T03:43:11;97661.04;;;0.52;100.00
46241;BME280;31961;52.416;-0.732;2023-01-16T03:45:44;97657.46;;;1.10;100.00
46241;BME280;31961;52.416;-0.732;2023-01-16T03:48:18;97651.60;;;1.74;100.00
46241;BME280;31961;52.416;-0.732;2023-01-16T03:50:51;97651.75;;;1.48;100.00
46241;BME280;31961;52.416;-0.732;2023-01-16T03:53:23;97648.24;;;1.54;100.00
46241;BME280;31961;52.416;-0.732;2023-01-16T03:55:59;97649.31;;;1.03;100.00
46241;BME280;31961;52.416;-0.732;2023-01-16T03:58:31;97644.20;;;1.75;100.00
46241;BME280;31961;52.416;-0.732;2023-01-16T04:01:08;97642.04;;;1.60;100.00
46241;BME280;31961;52.416;-0.732;2023-01-16T04:03:43;97640.20;;;1.08;100.00
46241;BME280;31961;52.416;-0.732;2023-01-16T04:06:18;97641.71;;;0.68;100.00
46241;BME280;31961;52.416;-0.732;2023-01-16T04:08:48;97637.85;;;0.77;100.00
46241;BME280;31961;52.416;-0.732;2023-01-16T04:11:20;97637.54;;;1.04;100.00
46241;BME280;31961;52.416;-0.732;2023-01-16T04:13:51;97634.27;;;0.67;100.00
46241;BME280;31961;52.416;-0.732;2023-01-16T04:16:21;97632.39;;;1.49;100.00
46241;BME280;31961;52.416;-0.732;2023-01-16T04:18:49;97626.28;;;2.10;100.00
46241;BME280;31961;52.416;-0.732;2023-01-16T04:21:19;97622.85;;;1.84;100.00
46241;BME280;31961;52.416;-0.732;2023-01-16T04:23:52;97623.32;;;1.23;100.00
46241;BME280;31961;52.416;-0.732;2023-01-16T04:26:20;97623.64;;;1.58;100.00
46241;BME280;31961;52.416;-0.732;2023-01-16T04:28:53;97624.42;;;1.03;100.00
46241;BME280;31961;52.416;-0.732;2023-01-16T04:31:22;97622.72;;;0.38;100.00
46241;BME280;31961;52.416;-0.732;2023-01-16T04:33:49;97621.03;;;0.25;100.00
46241;BME280;31961;52.416;-0.732;2023-01-16T04:36:17;97623.00;;;0.29;100.00
46241;BME280;31961;52.416;-0.732;2023-01-16T04:38:44;97626.59;;;0.39;100.00
46241;BME280;31961;52.416;-0.732;2023-01-16T04:41:12;97629.28;;;-0.19;100.00
46241;BME280;31961;52.416;-0.732;2023-01-16T04:43:39;97622.00;;;-0.15;100.00
46241;BME280;31961;52.416;-0.732;2023-01-16T04:46:06;97618.00;;;-0.65;100.00
46241;BME280;31961;52.416;-0.732;2023-01-16T04:48:33;97613.77;;;0.01;100.00
46241;BME280;31961;52.416;-0.732;2023-01-16T04:51:01;97609.17;;;-0.18;100.00
46241;BME280;31961;52.416;-0.732;2023-01-16T04:53:28;97614.92;;;-0.95;100.00
46241;BME280;31961;52.416;-0.732;2023-01-16T04:55:54;97609.47;;;-0.53;100.00
46241;BME280;31961;52.416;-0.732;2023-01-16T04:58:22;97613.55;;;-0.83;100.00
46241;BME280;31961;52.416;-0.732;2023-01-16T05:00:49;97616.88;;;-1.06;100.00
46241;BME280;31961;52.416;-0.732;2023-01-16T05:03:16;97616.63;;;-0.64;100.00
46241;BME280;31961;52.416;-0.732;2023-01-16T05:05:43;97616.05;;;-0.55;100.00
46241;BME280;31961;52.416;-0.732;2023-01-16T05:08:10;97610.56;;;-0.95;100.00
46241;BME280;31961;52.416;-0.732;2023-01-16T05:10:38;97613.74;;;-0.68;100.00
46241;BME280;31961;52.416;-0.732;2023-01-16T05:13:05;97614.22;;;-0.99;100.00
46241;BME280;31961;52.416;-0.732;2023-01-16T05:15:32;97616.97;;;-1.04;100.00
46241;BME280;31961;52.416;-0.732;2023-01-16T05:18:00;97615.45;;;-0.71;100.00
46241;BME280;31961;52.416;-0.732;2023-01-16T05:20:27;97610.58;;;-0.89;100.00
46241;BME280;31961;52.416;-0.732;2023-01-16T05:22:55;97602.83;;;-0.05;100.00
46241;BME280;31961;52.416;-0.732;2023-01-16T05:25:22;97602.16;;;-0.16;100.00
46241;BME280;31961;52.416;-0.732;2023-01-16T05:27:49;97600.70;;;-0.08;100.00
46241;BME280;31961;52.416;-0.732;2023-01-16T05:30:17;97603.70;;;-0.28;100.00
46241;BME280;31961;52.416;-0.732;2023-01-16T05:32:44;97600.74;;;-0.13;100.00
46241;BME280;31961;52.416;-0.732;2023-01-16T05:35:13;97598.25;;;-0.23;100.00
46241;BME280;31961;52.416;-0.732;2023-01-16T05:37:41;97593.93;;;0.08;100.00
46241;BME280;31961;52.416;-0.732;2023-01-16T05:40:09;97592.52;;;0.66;100.00
46241;BME280;31961;52.416;-0.732;2023-01-16T05:42:36;97590.07;;;0.79;100.00
46241;BME280;31961;52.416;-0.732;2023-01-16T05:45:05;97584.59;;;1.08;100.00
46241;BME280;31961;52.416;-0.732;2023-01-16T05:47:32;97582.87;;;0.46;100.00
46241;BME280;31961;52.416;-0.732;2023-01-16T05:50:01;97586.79;;;0.45;100.00
46241;BME280;31961;52.416;-0.732;2023-01-16T05:52:28;97589.60;;;-0.44;100.00
46241;BME280;31961;52.416;-0.732;2023-01-16T05:54:56;97591.07;;;-0.04;100.00
46241;BME280;31961;52.416;-0.732;2023-01-16T05:57:23;97590.17;;;0.35;100.00
46241;BME280;31961;52.416;-0.732;2023-01-16T05:59:51;97588.20;;;0.35;100.00
46241;BME280;31961;52.416;-0.732;2023-01-16T06:02:19;97590.71;;;-0.15;100.00
46241;BME280;31961;52.416;-0.732;2023-01-16T06:04:47;97589.16;;;0.43;100.00
46241;BME280;31961;52.416;-0.732;2023-01-16T06:07:15;97588.39;;;0.51;100.00
46241;BME280;31961;52.416;-0.732;2023-01-16T06:09:42;97588.80;;;0.02;100.00
46241;BME280;31961;52.416;-0.732;2023-01-16T06:12:14;97585.82;;;0.84;100.00
46241;BME280;31961;52.416;-0.732;2023-01-16T06:14:41;97587.71;;;0.61;100.00
46241;BME280;31961;52.416;-0.732;2023-01-16T06:17:09;97587.53;;;1.34;100.00
46241;BME280;31961;52.416;-0.732;2023-01-16T06:19:37;97586.80;;;1.07;100.00
46241;BME280;31961;52.416;-0.732;2023-01-16T06:22:03;97592.21;;;1.11;100.00
46241;BME280;31961;52.416;-0.732;2023-01-16T06:24:30;97592.41;;;1.59;100.00
46241;BME280;31961;52.416;-0.732;2023-01-16T06:26:57;97593.13;;;1.44;100.00
46241;BME280;31961;52.416;-0.732;2023-01-16T06:29:25;97599.44;;;0.24;100.00
46241;BME280;31961;52.416;-0.732;2023-01-16T06:31:53;97597.56;;;-0.76;100.00
46241;BME280;31961;52.416;-0.732;2023-01-16T06:34:20;97607.47;;;-0.65;100.00
46241;BME280;31961;52.416;-0.732;2023-01-16T06:36:48;97609.68;;;-0.56;100.00
46241;BME280;31961;52.416;-0.732;2023-01-16T06:39:16;97609.36;;;-0.25;100.00
46241;BME280;31961;52.416;-0.732;2023-01-16T06:41:43;97613.84;;;-0.46;100.00
46241;BME280;31961;52.416;-0.732;2023-01-16T06:44:11;97609.15;;;-0.28;100.00
46241;BME280;31961;52.416;-0.732;2023-01-16T06:46:38;97609.76;;;-0.36;100.00
46241;BME280;31961;52.416;-0.732;2023-01-16T06:49:06;97620.59;;;-0.98;100.00
46241;BME280;31961;52.416;-0.732;2023-01-16T06:51:33;97623.34;;;-0.59;100.00
46241;BME280;31961;52.416;-0.732;2023-01-16T06:54:01;97630.15;;;-0.80;100.00
46241;BME280;31961;52.416;-0.732;2023-01-16T06:56:28;97625.63;;;-0.42;100.00
46241;BME280;31961;52.416;-0.732;2023-01-16T06:58:55;97625.37;;;-0.37;100.00
46241;BME280;31961;52.416;-0.732;2023-01-16T07:01:23;97628.80;;;-0.38;100.00
46241;BME280;31961;52.416;-0.732;2023-01-16T07:03:50;97629.96;;;-0.32;100.00
46241;BME280;31961;52.416;-0.732;2023-01-16T07:06:18;97634.79;;;-0.76;100.00
46241;BME280;31961;52.416;-0.732;2023-01-16T07:08:45;97631.52;;;-0.27;100.00
46241;BME280;31961;52.416;-0.732;2023-01-16T07:11:13;97630.15;;;-0.58;100.00
46241;BME280;31961;52.416;-0.732;2023-01-16T07:13:40;97630.77;;;-0.30;100.00
46241;BME280;31961;52.416;-0.732;2023-01-16T07:16:09;97634.74;;;-0.53;100.00
46241;BME280;31961;52.416;-0.732;2023-01-16T07:18:37;97639.17;;;-1.07;100.00
46241;BME280;31961;52.416;-0.732;2023-01-16T07:21:09;97634.92;;;-0.42;100.00
46241;BME280;31961;52.416;-0.732;2023-01-16T07:23:39;97630.00;;;-0.17;100.00
46241;BME280;31961;52.416;-0.732;2023-01-16T07:26:08;97627.78;;;-0.37;100.00
46241;BME280;31961;52.416;-0.732;2023-01-16T07:28:35;97625.98;;;0.40;100.00
46241;BME280;31961;52.416;-0.732;2023-01-16T07:31:04;97631.73;;;0.06;100.00
46241;BME280;31961;52.416;-0.732;2023-01-16T07:33:32;97636.86;;;-0.24;100.00
46241;BME280;31961;52.416;-0.732;2023-01-16T07:36:00;97631.69;;;0.31;100.00
46241;BME280;31961;52.416;-0.732;2023-01-16T07:38:27;97634.03;;;0.15;100.00
46241;BME280;31961;52.416;-0.732;2023-01-16T07:40:55;97632.68;;;-0.03;100.00
46241;BME280;31961;52.416;-0.732;2023-01-16T07:43:22;97632.18;;;0.31;100.00
46241;BME280;31961;52.416;-0.732;2023-01-16T07:45:49;97634.92;;;0.26;100.00
46241;BME280;31961;52.416;-0.732;2023-01-16T07:48:17;97636.32;;;0.00;100.00
46241;BME280;31961;52.416;-0.732;2023-01-16T07:50:49;97633.94;;;0.32;100.00
46241;BME280;31961;52.416;-0.732;2023-01-16T07:53:16;97633.56;;;0.04;100.00
46241;BME280;31961;52.416;-0.732;2023-01-16T07:55:43;97639.20;;;-0.78;100.00
46241;BME280;31961;52.416;-0.732;2023-01-16T07:58:10;97635.43;;;-0.20;100.00
46241;BME280;31961;52.416;-0.732;2023-01-16T08:00:37;97646.23;;;0.37;100.00
46241;BME280;31961;52.416;-0.732;2023-01-16T08:03:04;97640.34;;;0.71;100.00
46241;BME280;31961;52.416;-0.732;2023-01-16T08:05:31;97641.93;;;0.47;100.00
46241;BME280;31961;52.416;-0.732;2023-01-16T08:07:58;97650.17;;;-0.29;100.00
46241;BME280;31961;52.416;-0.732;2023-01-16T08:10:25;97659.58;;;-0.16;100.00
46241;BME280;31961;52.416;-0.732;2023-01-16T08:12:52;97670.90;;;-1.27;100.00
46241;BME280;31961;52.416;-0.732;2023-01-16T08:15:19;97668.49;;;-0.51;100.00
46241;BME280;31961;52.416;-0.732;2023-01-16T08:17:46;97669.24;;;-0.32;100.00
46241;BME280;31961;52.416;-0.732;2023-01-16T08:20:14;97669.64;;;-0.53;100.00
46241;BME280;31961;52.416;-0.732;2023-01-16T08:22:43;97676.39;;;-0.67;100.00
46241;BME280;31961;52.416;-0.732;2023-01-16T08:25:16;97673.73;;;-1.19;100.00
46241;BME280;31961;52.416;-0.732;2023-01-16T08:27:44;97684.79;;;-1.05;100.00
46241;BME280;31961;52.416;-0.732;2023-01-16T08:30:13;97690.42;;;-0.96;100.00
46241;BME280;31961;52.416;-0.732;2023-01-16T08:32:41;97691.47;;;-0.92;100.00
46241;BME280;31961;52.416;-0.732;2023-01-16T08:35:09;97692.81;;;-1.04;100.00
46241;BME280;31961;52.416;-0.732;2023-01-16T08:37:36;97692.40;;;-0.61;100.00
46241;BME280;31961;52.416;-0.732;2023-01-16T08:40:04;97695.04;;;-1.08;100.00
46241;BME280;31961;52.416;-0.732;2023-01-16T08:42:32;97698.02;;;-1.08;100.00
46241;BME280;31961;52.416;-0.732;2023-01-16T08:44:59;97698.35;;;-1.73;100.00
46241;BME280;31961;52.416;-0.732;2023-01-16T08:47:27;97701.11;;;-1.14;100.00
46241;BME280;31961;52.416;-0.732;2023-01-16T08:49:54;97695.71;;;-0.58;100.00
46241;BME280;31961;52.416;-0.732;2023-01-16T08:52:22;97694.84;;;-0.50;100.00
46241;BME280;31961;52.416;-0.732;2023-01-16T08:54:48;97688.26;;;-0.09;100.00
46241;BME280;31961;52.416;-0.732;2023-01-16T08:57:16;97683.26;;;-0.26;100.00
46241;BME280;31961;52.416;-0.732;2023-01-16T08:59:43;97679.66;;;-0.36;100.00
46241;BME280;31961;52.416;-0.732;2023-01-16T09:02:11;97677.23;;;-0.41;100.00
46241;BME280;31961;52.416;-0.732;2023-01-16T09:04:38;97681.88;;;0.23;100.00
46241;BME280;31961;52.416;-0.732;2023-01-16T09:07:06;97686.43;;;-0.50;100.00
46241;BME280;31961;52.416;-0.732;2023-01-16T09:09:33;97695.79;;;-0.51;100.00
46241;BME280;31961;52.416;-0.732;2023-01-16T09:12:00;97699.80;;;-0.49;100.00
46241;BME280;31961;52.416;-0.732;2023-01-16T09:14:28;97705.22;;;-0.42;100.00
46241;BME280;31961;52.416;-0.732;2023-01-16T09:16:55;97708.87;;;-0.31;100.00
46241;BME280;31961;52.416;-0.732;2023-01-16T09:19:22;97716.72;;;-0.57;100.00
46241;BME280;31961;52.416;-0.732;2023-01-16T09:21:49;97727.63;;;-0.61;100.00
46241;BME280;31961;52.416;-0.732;2023-01-16T09:24:16;97730.02;;;-0.81;100.00
46241;BME280;31961;52.416;-0.732;2023-01-16T09:26:44;97731.20;;;-0.45;100.00
46241;BME280;31961;52.416;-0.732;2023-01-16T09:29:10;97730.13;;;-0.70;100.00
46241;BME280;31961;52.416;-0.732;2023-01-16T09:31:38;97733.91;;;-1.32;100.00
46241;BME280;31961;52.416;-0.732;2023-01-16T09:34:05;97737.06;;;-1.10;100.00
46241;BME280;31961;52.416;-0.732;2023-01-16T09:36:32;97736.41;;;-0.99;100.00
46241;BME280;31961;52.416;-0.732;2023-01-16T09:38:59;97736.00;;;-0.68;100.00
46241;BME280;31961;52.416;-0.732;2023-01-16T09:41:27;97739.97;;;-1.29;100.00
46241;BME280;31961;52.416;-0.732;2023-01-16T09:43:58;97747.07;;;-1.56;100.00
46241;BME280;31961;52.416;-0.732;2023-01-16T09:46:28;97748.02;;;-1.57;100.00
46241;BME280;31961;52.416;-0.732;2023-01-16T09:48:59;97751.03;;;-1.55;100.00
46241;BME280;31961;52.416;-0.732;2023-01-16T09:51:32;97750.70;;;-1.69;100.00
46241;BME280;31961;52.416;-0.732;2023-01-16T09:54:04;97758.68;;;-1.57;100.00
46241;BME280;31961;52.416;-0.732;2023-01-16T09:56:36;97764.82;;;-1.33;100.00
46241;BME280;31961;52.416;-0.732;2023-01-16T09:59:16;97761.87;;;-1.45;100.00
46241;BME280;31961;52.416;-0.732;2023-01-16T10:01:53;97760.70;;;-1.19;100.00
46241;BME280;31961;52.416;-0.732;2023-01-16T10:04:23;97761.81;;;-0.90;100.00
46241;BME280;31961;52.416;-0.732;2023-01-16T10:07:04;97758.16;;;-0.72;100.00
46241;BME280;31961;52.416;-0.732;2023-01-16T10:09:41;97765.96;;;-0.87;100.00
46241;BME280;31961;52.416;-0.732;2023-01-16T10:12:13;97760.09;;;-0.87;100.00
46241;BME280;31961;52.416;-0.732;2023-01-16T10:14:50;97764.43;;;-0.73;100.00
46241;BME280;31961;52.416;-0.732;2023-01-16T10:17:27;97761.71;;;-0.57;100.00
46241;BME280;31961;52.416;-0.732;2023-01-16T10:20:13;97768.48;;;-0.62;100.00
46241;BME280;31961;52.416;-0.732;2023-01-16T10:22:54;97775.07;;;-0.50;100.00
46241;BME280;31961;52.416;-0.732;2023-01-16T10:25:28;97778.39;;;-0.75;100.00
46241;BME280;31961;52.416;-0.732;2023-01-16T10:28:09;97771.31;;;-0.44;100.00
46241;BME280;31961;52.416;-0.732;2023-01-16T10:30:42;97766.46;;;-0.64;100.00
46241;BME280;31961;52.416;-0.732;2023-01-16T10:33:14;97760.67;;;-0.61;100.00
46241;BME280;31961;52.416;-0.732;2023-01-16T10:35:48;97761.07;;;-0.63;100.00
46241;BME280;31961;52.416;-0.732;2023-01-16T10:38:22;97765.85;;;-0.79;100.00
46241;BME280;31961;52.416;-0.732;2023-01-16T10:40:52;97770.96;;;-0.70;100.00
46241;BME280;31961;52.416;-0.732;2023-01-16T10:43:27;97774.98;;;-0.36;100.00
46241;BME280;31961;52.416;-0.732;2023-01-16T10:46:10;97776.46;;;-0.59;100.00
46241;BME280;31961;52.416;-0.732;2023-01-16T10:48:39;97778.19;;;-0.43;100.00
46241;BME280;31961;52.416;-0.732;2023-01-16T10:51:07;97778.50;;;-0.18;100.00
46241;BME280;31961;52.416;-0.732;2023-01-16T10:53:35;97781.19;;;-0.04;100.00
46241;BME280;31961;52.416;-0.732;2023-01-16T10:56:05;97774.96;;;-0.07;100.00
46241;BME280;31961;52.416;-0.732;2023-01-16T10:58:33;97784.15;;;-0.23;100.00
46241;BME280;31961;52.416;-0.732;2023-01-16T11:01:03;97781.69;;;-0.31;100.00
46241;BME280;31961;52.416;-0.732;2023-01-16T11:03:35;97779.88;;;-0.52;100.00
46241;BME280;31961;52.416;-0.732;2023-01-16T11:06:10;97778.20;;;-0.57;100.00
46241;BME280;31961;52.416;-0.732;2023-01-16T11:08:38;97773.16;;;-0.27;100.00
46241;BME280;31961;52.416;-0.732;2023-01-16T11:11:09;97774.51;;;-0.66;100.00
46241;BME280;31961;52.416;-0.732;2023-01-16T11:13:37;97773.76;;;-0.15;100.00
46241;BME280;31961;52.416;-0.732;2023-01-16T11:16:18;97774.77;;;-0.16;100.00
46241;BME280;31961;52.416;-0.732;2023-01-16T11:18:45;97777.19;;;-0.61;100.00
46241;BME280;31961;52.416;-0.732;2023-01-16T11:21:16;97782.99;;;-0.19;100.00
46241;BME280;31961;52.416;-0.732;2023-01-16T11:23:47;97784.82;;;-0.23;100.00
46241;BME280;31961;52.416;-0.732;2023-01-16T11:26:16;97785.42;;;-0.79;100.00
46241;BME280;31961;52.416;-0.732;2023-01-16T11:28:46;97782.45;;;-0.25;100.00
46241;BME280;31961;52.416;-0.732;2023-01-16T11:31:19;97785.64;;;-0.80;100.00
46241;BME280;31961;52.416;-0.732;2023-01-16T11:33:50;97784.29;;;-0.49;100.00
46241;BME280;31961;52.416;-0.732;2023-01-16T11:36:19;97780.45;;;-0.28;100.00
46241;BME280;31961;52.416;-0.732;2023-01-16T11:38:48;97777.51;;;-0.35;100.00
46241;BME280;31961;52.416;-0.732;2023-01-16T11:41:19;97779.01;;;0.28;100.00
46241;BME280;31961;52.416;-0.732;2023-01-16T11:43:53;97782.58;;;0.03;100.00
46241;BME280;31961;52.416;-0.732;2023-01-16T11:46:34;97785.07;;;-0.09;100.00
46241;BME280;31961;52.416;-0.732;2023-01-16T11:49:13;97782.42;;;0.07;100.00
46241;BME280;31961;52.416;-0.732;2023-01-16T11:51:41;97779.78;;;-0.43;100.00
46241;BME280;31961;52.416;-0.732;2023-01-16T11:54:14;97785.05;;;-0.20;100.00
46241;BME280;31961;52.416;-0.732;2023-01-16T11:56:50;97780.46;;;-0.36;100.00
46241;BME280;31961;52.416;-0.732;2023-01-16T11:59:36;97778.59;;;-0.68;100.00
46241;BME280;31961;52.416;-0.732;2023-01-16T12:02:22;97779.61;;;-0.41;100.00
46241;BME280;31961;52.416;-0.732;2023-01-16T12:05:03;97782.34;;;-0.22;100.00
46241;BME280;31961;52.416;-0.732;2023-01-16T12:07:41;97789.95;;;-0.03;100.00
46241;BME280;31961;52.416;-0.732;2023-01-16T12:10:23;97787.47;;;0.02;100.00
46241;BME280;31961;52.416;-0.732;2023-01-16T12:12:59;97787.47;;;-0.29;100.00
46241;BME280;31961;52.416;-0.732;2023-01-16T12:15:33;97787.59;;;-0.87;100.00
46241;BME280;31961;52.416;-0.732;2023-01-16T12:18:08;97783.53;;;-0.88;100.00
46241;BME280;31961;52.416;-0.732;2023-01-16T12:20:45;97773.67;;;-0.21;100.00
46241;BME280;31961;52.416;-0.732;2023-01-16T12:23:34;97769.47;;;0.30;100.00
46241;BME280;31961;52.416;-0.732;2023-01-16T12:26:15;97791.92;;;0.27;100.00
46241;BME280;31961;52.416;-0.732;2023-01-16T12:28:56;97805.77;;;-0.58;100.00
46241;BME280;31961;52.416;-0.732;2023-01-16T12:31:47;97806.87;;;-0.61;100.00
46241;BME280;31961;52.416;-0.732;2023-01-16T12:34:47;97807.02;;;-0.60;100.00
46241;BME280;31961;52.416;-0.732;2023-01-16T12:37:31;97808.03;;;-0.40;100.00
46241;BME280;31961;52.416;-0.732;2023-01-16T12:40:12;97802.06;;;-0.32;100.00
46241;BME280;31961;52.416;-0.732;2023-01-16T12:40:28;97796.06;;;-0.29;100.00
46241;BME280;31961;52.416;-0.732;2023-01-16T12:43:03;97790.04;;;-0.82;100.00
46241;BME280;31961;52.416;-0.732;2023-01-16T12:45:38;97790.30;;;-0.40;100.00
46241;BME280;31961;52.416;-0.732;2023-01-16T12:48:20;97788.50;;;-1.13;100.00
46241;BME280;31961;52.416;-0.732;2023-01-16T12:51:02;97780.77;;;-0.25;100.00
46241;BME280;31961;52.416;-0.732;2023-01-16T12:53:43;97768.34;;;-0.51;100.00
46241;BME280;31961;52.416;-0.732;2023-01-16T12:56:27;97766.04;;;-0.62;100.00
46241;BME280;31961;52.416;-0.732;2023-01-16T12:59:00;97760.82;;;0.39;100.00
46241;BME280;31961;52.416;-0.732;2023-01-16T13:01:30;97760.58;;;0.22;100.00